sensor_id;sensor_type;location;lat;lon;timestamp;noise_LAeq;noise_LA_min;noise_LA_max;noise_LA01;noise_LA95
37162;Laerm;68342;52.598;13.450;2023-08-30T00:00:28;34.04;30.68;53.20;;
37162;Laerm;68342;52.598;13.450;2023-08-30T00:02:53;33.16;30.27;48.65;;
37162;Laerm;68342;52.598;13.450;2023-08-30T00:05:18;33.86;30.44;49.39;;
37162;Laerm;68342;52.598;13.450;2023-08-30T00:07:44;33.57;30.49;49.23;;
37162;Laerm;68342;52.598;13.450;2023-08-30T00:10:09;34.70;31.20;45.83;;
37162;Laerm;68342;52.598;13.450;2023-08-30T00:12:35;34.03;31.03;47.26;;
37162;Laerm;68342;52.598;13.450;2023-08-30T00:15:00;34.51;31.18;46.09;;
37162;Laerm;68342;52.598;13.450;2023-08-30T00:17:26;34.16;30.75;46.63;;
37162;Laerm;68342;52.598;13.450;2023-08-30T00:19:51;36.20;31.35;44.88;;
37162;Laerm;68342;52.598;13.450;2023-08-30T00:22:18;34.97;31.75;48.50;;
37162;Laerm;68342;52.598;13.450;2023-08-30T00:24:43;36.11;32.33;47.41;;
37162;Laerm;68342;52.598;13.450;2023-08-30T00:27:09;34.78;31.10;46.35;;
37162;Laerm;68342;52.598;13.450;2023-08-30T00:32:52;35.12;30.95;49.80;;
37162;Laerm;68342;52.598;13.450;2023-08-30T00:36:21;40.81;30.78;51.24;;
37162;Laerm;68342;52.598;13.450;2023-08-30T00:39:04;34.22;30.40;49.39;;
37162;Laerm;68342;52.598;13.450;2023-08-30T00:41:30;33.33;30.27;49.05;;
37162;Laerm;68342;52.598;13.450;2023-08-30T00:43:55;33.80;30.16;49.30;;
37162;Laerm;68342;52.598;13.450;2023-08-30T00:46:20;33.66;29.94;45.69;;
37162;Laerm;68342;52.598;13.450;2023-08-30T00:48:47;33.53;30.02;51.32;;
37162;Laerm;68342;52.598;13.450;2023-08-30T00:51:12;34.09;30.40;52.81;;
37162;Laerm;68342;52.598;13.450;2023-08-30T00:53:39;33.29;30.20;51.99;;
37162;Laerm;68342;52.598;13.450;2023-08-30T00:56:16;33.68;30.43;47.51;;
37162;Laerm;68342;52.598;13.450;2023-08-30T00:58:42;35.90;31.37;49.29;;
37162;Laerm;68342;52.598;13.450;2023-08-30T01:01:07;35.10;30.85;45.92;;
37162;Laerm;68342;52.598;13.450;2023-08-30T01:03:34;34.34;31.00;47.21;;
37162;Laerm;68342;52.598;13.450;2023-08-30T01:06:03;35.32;31.28;48.08;;
37162;Laerm;68342;52.598;13.450;2023-08-30T01:08:30;34.31;30.69;49.34;;
37162;Laerm;68342;52.598;13.450;2023-08-30T01:11:05;34.60;30.60;51.06;;
37162;Laerm;68342;52.598;13.450;2023-08-30T01:13:37;34.41;30.94;49.54;;
37162;Laerm;68342;52.598;13.450;2023-08-30T01:16:05;34.56;31.36;49.21;;
37162;Laerm;68342;52.598;13.450;2023-08-30T01:18:32;36.37;31.52;45.60;;
37162;Laerm;68342;52.598;13.450;2023-08-30T01:20:57;34.05;30.58;47.18;;
37162;Laerm;68342;52.598;13.450;2023-08-30T01:23:34;33.57;30.65;52.10;;
37162;Laerm;68342;52.598;13.450;2023-08-30T01:26:20;33.92;29.93;53.78;;
37162;Laerm;68342;52.598;13.450;2023-08-30T01:28:49;36.18;30.62;50.49;;
37162;Laerm;68342;52.598;13.450;2023-08-30T01:31:16;35.64;32.17;46.99;;
37162;Laerm;68342;52.598;13.450;2023-08-30T01:33:41;35.72;32.08;50.20;;
37162;Laerm;68342;52.598;13.450;2023-08-30T01:36:07;36.68;30.90;49.00;;
37162;Laerm;68342;52.598;13.450;2023-08-30T01:38:33;35.30;31.47;50.44;;
37162;Laerm;68342;52.598;13.450;2023-08-30T01:40:59;35.89;31.96;48.27;;
37162;Laerm;68342;52.598;13.450;2023-08-30T01:43:26;36.63;32.85;46.87;;
37162;Laerm;68342;52.598;13.450;2023-08-30T01:45:53;36.85;31.92;47.16;;
37162;Laerm;68342;52.598;13.450;2023-08-30T01:48:21;35.72;30.91;49.03;;
37162;Laerm;68342;52.598;13.450;2023-08-30T01:50:47;36.40;31.72;46.89;;
37162;Laerm;68342;52.598;13.450;2023-08-30T01:53:13;35.64;31.66;52.14;;
37162;Laerm;68342;52.598;13.450;2023-08-30T01:55:38;34.36;30.74;52.17;;
37162;Laerm;68342;52.598;13.450;2023-08-30T01:58:05;35.32;31.62;50.99;;
37162;Laerm;68342;52.598;13.450;2023-08-30T02:00:30;37.15;32.91;49.60;;
37162;Laerm;68342;52.598;13.450;2023-08-30T02:05:23;35.18;31.77;49.44;;
37162;Laerm;68342;52.598;13.450;2023-08-30T02:07:57;36.26;31.33;51.53;;
37162;Laerm;68342;52.598;13.450;2023-08-30T02:10:34;37.48;32.94;48.54;;
37162;Laerm;68342;52.598;13.450;2023-08-30T02:13:00;37.54;33.17;45.75;;
37162;Laerm;68342;52.598;13.450;2023-08-30T02:15:26;35.32;31.66;50.36;;
37162;Laerm;68342;52.598;13.450;2023-08-30T02:17:52;36.60;32.18;50.46;;
37162;Laerm;68342;52.598;13.450;2023-08-30T02:20:18;38.71;33.67;48.52;;
37162;Laerm;68342;52.598;13.450;2023-08-30T02:22:44;37.92;33.67;49.40;;
37162;Laerm;68342;52.598;13.450;2023-08-30T02:25:09;38.96;33.67;47.50;;
37162;Laerm;68342;52.598;13.450;2023-08-30T02:27:35;39.42;33.47;52.64;;
37162;Laerm;68342;52.598;13.450;2023-08-30T02:30:00;39.18;34.94;50.73;;
37162;Laerm;68342;52.598;13.450;2023-08-30T02:32:25;39.49;35.29;47.59;;
37162;Laerm;68342;52.598;13.450;2023-08-30T02:34:51;37.59;33.90;49.30;;
37162;Laerm;68342;52.598;13.450;2023-08-30T02:37:17;37.75;33.46;50.27;;
37162;Laerm;68342;52.598;13.450;2023-08-30T02:39:43;39.23;34.23;49.30;;
37162;Laerm;68342;52.598;13.450;2023-08-30T02:42:08;39.32;34.52;48.35;;
37162;Laerm;68342;52.598;13.450;2023-08-30T02:44:33;44.54;34.20;54.66;;
37162;Laerm;68342;52.598;13.450;2023-08-30T02:46:58;37.31;33.06;49.22;;
37162;Laerm;68342;52.598;13.450;2023-08-30T02:49:24;41.45;33.80;50.57;;
37162;Laerm;68342;52.598;13.450;2023-08-30T02:51:49;39.46;35.19;47.22;;
37162;Laerm;68342;52.598;13.450;2023-08-30T02:54:14;41.54;37.56;51.30;;
37162;Laerm;68342;52.598;13.450;2023-08-30T02:56:40;40.15;36.67;47.85;;
37162;Laerm;68342;52.598;13.450;2023-08-30T02:59:07;40.67;37.21;48.50;;
37162;Laerm;68342;52.598;13.450;2023-08-30T03:01:32;40.75;36.50;48.34;;
37162;Laerm;68342;52.598;13.450;2023-08-30T03:03:57;40.49;36.70;50.42;;
37162;Laerm;68342;52.598;13.450;2023-08-30T03:06:23;42.77;38.58;52.95;;
37162;Laerm;68342;52.598;13.450;2023-08-30T03:08:48;40.90;37.63;50.26;;
37162;Laerm;68342;52.598;13.450;2023-08-30T03:11:14;41.61;37.59;46.66;;
37162;Laerm;68342;52.598;13.450;2023-08-30T03:13:39;40.74;38.08;49.34;;
37162;Laerm;68342;52.598;13.450;2023-08-30T03:16:17;41.10;37.34;50.30;;
37162;Laerm;68342;52.598;13.450;2023-08-30T03:18:42;41.81;38.70;50.03;;
37162;Laerm;68342;52.598;13.450;2023-08-30T03:21:09;41.98;38.11;49.35;;
37162;Laerm;68342;52.598;13.450;2023-08-30T03:23:34;45.36;40.29;54.17;;
37162;Laerm;68342;52.598;13.450;2023-08-30T03:26:07;42.84;39.08;50.94;;
37162;Laerm;68342;52.598;13.450;2023-08-30T03:28:32;43.38;40.68;53.20;;
37162;Laerm;68342;52.598;13.450;2023-08-30T03:30:58;43.94;40.82;53.32;;
37162;Laerm;68342;52.598;13.450;2023-08-30T03:33:23;43.31;40.16;51.35;;
37162;Laerm;68342;52.598;13.450;2023-08-30T03:35:48;44.47;40.82;51.62;;
37162;Laerm;68342;52.598;13.450;2023-08-30T03:38:13;44.58;40.77;50.86;;
37162;Laerm;68342;52.598;13.450;2023-08-30T03:40:38;44.71;40.66;52.29;;
37162;Laerm;68342;52.598;13.450;2023-08-30T03:43:04;43.97;40.52;49.29;;
37162;Laerm;68342;52.598;13.450;2023-08-30T03:45:33;43.72;40.70;50.88;;
37162;Laerm;68342;52.598;13.450;2023-08-30T03:48:00;45.08;40.39;53.63;;
37162;Laerm;68342;52.598;13.450;2023-08-30T03:50:27;47.92;41.12;56.32;;
37162;Laerm;68342;52.598;13.450;2023-08-30T03:52:52;44.02;39.41;52.62;;
37162;Laerm;68342;52.598;13.450;2023-08-30T03:55:23;44.69;41.40;48.42;;
37162;Laerm;68342;52.598;13.450;2023-08-30T03:57:55;43.82;39.84;49.97;;
37162;Laerm;68342;52.598;13.450;2023-08-30T04:00:38;44.14;40.31;51.20;;
37162;Laerm;68342;52.598;13.450;2023-08-30T04:03:13;44.88;40.40;64.44;;
37162;Laerm;68342;52.598;13.450;2023-08-30T04:05:38;43.36;39.74;53.07;;
37162;Laerm;68342;52.598;13.450;2023-08-30T04:08:05;43.12;40.11;51.50;;
37162;Laerm;68342;52.598;13.450;2023-08-30T04:10:41;46.92;40.24;70.33;;
37162;Laerm;68342;52.598;13.450;2023-08-30T04:13:07;44.07;40.61;47.70;;
37162;Laerm;68342;52.598;13.450;2023-08-30T04:15:37;44.52;41.31;51.58;;
37162;Laerm;68342;52.598;13.450;2023-08-30T04:18:02;44.39;41.04;52.27;;
37162;Laerm;68342;52.598;13.450;2023-08-30T04:20:28;45.16;41.37;60.43;;
37162;Laerm;68342;52.598;13.450;2023-08-30T04:22:53;44.06;41.49;55.41;;
37162;Laerm;68342;52.598;13.450;2023-08-30T04:25:20;46.91;40.27;63.80;;
37162;Laerm;68342;52.598;13.450;2023-08-30T04:27:45;45.05;41.37;51.64;;
37162;Laerm;68342;52.598;13.450;2023-08-30T04:30:10;44.05;40.34;50.57;;
37162;Laerm;68342;52.598;13.450;2023-08-30T04:32:36;44.77;40.49;56.56;;
37162;Laerm;68342;52.598;13.450;2023-08-30T04:35:01;44.48;39.24;58.11;;
37162;Laerm;68342;52.598;13.450;2023-08-30T04:37:29;43.48;39.99;55.88;;
37162;Laerm;68342;52.598;13.450;2023-08-30T04:39:55;44.04;39.95;56.67;;
37162;Laerm;68342;52.598;13.450;2023-08-30T04:42:20;44.21;40.26;55.70;;
37162;Laerm;68342;52.598;13.450;2023-08-30T04:44:46;46.78;40.46;62.18;;
37162;Laerm;68342;52.598;13.450;2023-08-30T04:47:11;43.97;40.43;51.36;;
37162;Laerm;68342;52.598;13.450;2023-08-30T04:49:36;44.73;40.50;52.54;;
37162;Laerm;68342;52.598;13.450;2023-08-30T04:52:01;45.11;40.61;56.69;;
37162;Laerm;68342;52.598;13.450;2023-08-30T04:54:27;45.01;41.19;56.68;;
37162;Laerm;68342;52.598;13.450;2023-08-30T04:56:52;43.40;40.33;50.55;;
37162;Laerm;68342;52.598;13.450;2023-08-30T04:59:17;43.35;39.71;57.86;;
37162;Laerm;68342;52.598;13.450;2023-08-30T05:01:42;45.24;40.56;60.20;;
37162;Laerm;68342;52.598;13.450;2023-08-30T05:04:09;43.13;40.06;50.02;;
37162;Laerm;68342;52.598;13.450;2023-08-30T05:06:35;46.02;39.46;62.36;;
37162;Laerm;68342;52.598;13.450;2023-08-30T05:09:00;44.87;39.99;54.98;;
37162;Laerm;68342;52.598;13.450;2023-08-30T05:11:26;44.74;39.66;61.50;;
37162;Laerm;68342;52.598;13.450;2023-08-30T05:13:51;44.20;40.14;55.99;;
37162;Laerm;68342;52.598;13.450;2023-08-30T05:16:16;45.16;40.60;59.61;;
37162;Laerm;68342;52.598;13.450;2023-08-30T05:18:41;43.17;39.46;55.04;;
37162;Laerm;68342;52.598;13.450;2023-08-30T05:21:07;43.25;39.80;50.70;;
37162;Laerm;68342;52.598;13.450;2023-08-30T05:23:32;45.32;39.91;59.07;;
37162;Laerm;68342;52.598;13.450;2023-08-30T05:25:57;43.20;38.83;63.81;;
37162;Laerm;68342;52.598;13.450;2023-08-30T05:28:23;43.21;38.87;54.49;;
37162;Laerm;68342;52.598;13.450;2023-08-30T05:30:48;42.63;39.79;51.40;;
37162;Laerm;68342;52.598;13.450;2023-08-30T05:33:13;44.37;40.27;53.22;;
37162;Laerm;68342;52.598;13.450;2023-08-30T05:35:38;43.39;39.13;54.57;;
37162;Laerm;68342;52.598;13.450;2023-08-30T05:38:04;45.73;40.11;61.62;;
37162;Laerm;68342;52.598;13.450;2023-08-30T05:40:29;46.81;39.67;67.18;;
37162;Laerm;68342;52.598;13.450;2023-08-30T05:42:54;48.43;40.90;64.43;;
37162;Laerm;68342;52.598;13.450;2023-08-30T05:45:20;47.54;40.57;67.45;;
37162;Laerm;68342;52.598;13.450;2023-08-30T05:47:45;45.61;39.90;61.84;;
37162;Laerm;68342;52.598;13.450;2023-08-30T05:50:10;44.82;39.76;59.25;;
37162;Laerm;68342;52.598;13.450;2023-08-30T05:52:36;42.71;39.99;50.96;;
37162;Laerm;68342;52.598;13.450;2023-08-30T05:55:06;43.85;39.92;52.88;;
37162;Laerm;68342;52.598;13.450;2023-08-30T05:57:31;44.03;39.88;54.49;;
37162;Laerm;68342;52.598;13.450;2023-08-30T05:59:58;43.14;39.44;58.95;;
37162;Laerm;68342;52.598;13.450;2023-08-30T06:02:23;44.28;39.85;63.66;;
37162;Laerm;68342;52.598;13.450;2023-08-30T06:04:48;42.44;38.95;50.48;;
37162;Laerm;68342;52.598;13.450;2023-08-30T06:07:14;41.62;38.60;52.14;;
37162;Laerm;68342;52.598;13.450;2023-08-30T06:09:39;42.52;38.45;53.22;;
37162;Laerm;68342;52.598;13.450;2023-08-30T06:12:04;43.17;39.38;53.34;;
37162;Laerm;68342;52.598;13.450;2023-08-30T06:14:30;43.61;38.98;63.06;;
37162;Laerm;68342;52.598;13.450;2023-08-30T06:16:55;42.27;38.81;55.92;;
37162;Laerm;68342;52.598;13.450;2023-08-30T06:19:20;44.41;40.00;56.39;;
37162;Laerm;68342;52.598;13.450;2023-08-30T06:21:45;43.54;38.57;56.05;;
37162;Laerm;68342;52.598;13.450;2023-08-30T06:24:11;45.52;39.69;59.99;;
37162;Laerm;68342;52.598;13.450;2023-08-30T06:26:36;45.27;38.10;58.99;;
37162;Laerm;68342;52.598;13.450;2023-08-30T06:29:01;43.68;38.10;56.64;;
37162;Laerm;68342;52.598;13.450;2023-08-30T06:31:27;43.46;39.51;55.27;;
37162;Laerm;68342;52.598;13.450;2023-08-30T06:33:54;43.34;38.80;63.21;;
37162;Laerm;68342;52.598;13.450;2023-08-30T06:36:19;42.76;38.71;54.24;;
37162;Laerm;68342;52.598;13.450;2023-08-30T06:38:47;43.19;38.36;58.32;;
37162;Laerm;68342;52.598;13.450;2023-08-30T06:41:12;44.28;39.81;58.03;;
37162;Laerm;68342;52.598;13.450;2023-08-30T06:43:37;43.19;39.09;56.93;;
37162;Laerm;68342;52.598;13.450;2023-08-30T06:46:03;44.54;39.29;59.44;;
37162;Laerm;68342;52.598;13.450;2023-08-30T06:48:28;43.37;38.93;57.18;;
37162;Laerm;68342;52.598;13.450;2023-08-30T06:50:56;43.62;39.17;57.07;;
37162;Laerm;68342;52.598;13.450;2023-08-30T06:53:22;44.03;38.48;58.16;;
37162;Laerm;68342;52.598;13.450;2023-08-30T06:55:55;44.56;37.72;57.72;;
37162;Laerm;68342;52.598;13.450;2023-08-30T06:58:21;44.30;38.38;57.96;;
37162;Laerm;68342;52.598;13.450;2023-08-30T07:00:46;43.34;38.40;55.53;;
37162;Laerm;68342;52.598;13.450;2023-08-30T07:03:11;42.93;36.93;55.66;;
37162;Laerm;68342;52.598;13.450;2023-08-30T07:05:37;46.73;38.76;65.30;;
37162;Laerm;68342;52.598;13.450;2023-08-30T07:08:02;41.73;36.81;57.81;;
37162;Laerm;68342;52.598;13.450;2023-08-30T07:10:27;44.28;37.90;57.53;;
37162;Laerm;68342;52.598;13.450;2023-08-30T07:12:53;43.69;38.28;58.02;;
37162;Laerm;68342;52.598;13.450;2023-08-30T07:15:18;42.38;38.72;55.12;;
37162;Laerm;68342;52.598;13.450;2023-08-30T07:17:43;43.61;40.02;51.23;;
37162;Laerm;68342;52.598;13.450;2023-08-30T07:20:09;42.16;38.30;51.74;;
37162;Laerm;68342;52.598;13.450;2023-08-30T07:22:34;41.99;38.20;51.34;;
37162;Laerm;68342;52.598;13.450;2023-08-30T07:24:59;40.68;37.52;48.40;;
37162;Laerm;68342;52.598;13.450;2023-08-30T07:27:25;41.83;37.95;53.78;;
37162;Laerm;68342;52.598;13.450;2023-08-30T07:29:50;42.06;39.04;50.51;;
37162;Laerm;68342;52.598;13.450;2023-08-30T07:32:15;41.71;38.18;53.42;;
37162;Laerm;68342;52.598;13.450;2023-08-30T07:34:41;40.51;37.52;49.76;;
37162;Laerm;68342;52.598;13.450;2023-08-30T07:37:16;42.06;37.18;54.80;;
37162;Laerm;68342;52.598;13.450;2023-08-30T07:39:41;44.18;38.83;56.32;;
37162;Laerm;68342;52.598;13.450;2023-08-30T07:42:07;41.01;36.99;50.25;;
37162;Laerm;68342;52.598;13.450;2023-08-30T07:44:32;42.29;37.12;59.30;;
37162;Laerm;68342;52.598;13.450;2023-08-30T07:46:57;40.61;37.35;55.56;;
37162;Laerm;68342;52.598;13.450;2023-08-30T07:49:22;40.52;36.50;49.54;;
37162;Laerm;68342;52.598;13.450;2023-08-30T07:51:48;42.59;36.42;57.58;;
37162;Laerm;68342;52.598;13.450;2023-08-30T07:54:13;43.99;37.10;58.39;;
37162;Laerm;68342;52.598;13.450;2023-08-30T07:56:38;45.70;36.71;65.72;;
37162;Laerm;68342;52.598;13.450;2023-08-30T07:59:03;42.63;36.34;56.25;;
37162;Laerm;68342;52.598;13.450;2023-08-30T08:01:29;42.00;36.91;56.48;;
37162;Laerm;68342;52.598;13.450;2023-08-30T08:03:54;45.85;36.83;57.89;;
37162;Laerm;68342;52.598;13.450;2023-08-30T08:06:19;40.18;35.85;47.75;;
37162;Laerm;68342;52.598;13.450;2023-08-30T08:08:44;40.16;36.04;56.03;;
37162;Laerm;68342;52.598;13.450;2023-08-30T08:11:10;41.83;36.50;59.37;;
37162;Laerm;68342;52.598;13.450;2023-08-30T08:13:35;42.50;35.13;56.50;;
37162;Laerm;68342;52.598;13.450;2023-08-30T08:16:00;39.46;36.22;49.22;;
37162;Laerm;68342;52.598;13.450;2023-08-30T08:18:25;42.91;36.17;54.20;;
37162;Laerm;68342;52.598;13.450;2023-08-30T08:20:52;43.29;36.22;56.16;;
37162;Laerm;68342;52.598;13.450;2023-08-30T08:23:17;44.49;37.70;58.43;;
37162;Laerm;68342;52.598;13.450;2023-08-30T08:25:43;44.00;36.82;61.53;;
37162;Laerm;68342;52.598;13.450;2023-08-30T08:28:08;40.80;36.65;51.94;;
37162;Laerm;68342;52.598;13.450;2023-08-30T08:30:33;44.87;37.65;64.11;;
37162;Laerm;68342;52.598;13.450;2023-08-30T08:32:58;42.93;36.41;59.86;;
37162;Laerm;68342;52.598;13.450;2023-08-30T08:35:24;39.29;35.70;53.67;;
37162;Laerm;68342;52.598;13.450;2023-08-30T08:37:50;41.34;36.53;58.07;;
37162;Laerm;68342;52.598;13.450;2023-08-30T08:40:16;40.16;36.86;54.19;;
37162;Laerm;68342;52.598;13.450;2023-08-30T08:42:41;40.43;36.77;59.90;;
37162;Laerm;68342;52.598;13.450;2023-08-30T08:45:07;44.34;37.10;65.79;;
37162;Laerm;68342;52.598;13.450;2023-08-30T08:47:33;42.01;36.93;61.81;;
37162;Laerm;68342;52.598;13.450;2023-08-30T08:49:59;41.92;36.30;57.25;;
37162;Laerm;68342;52.598;13.450;2023-08-30T08:52:30;44.97;36.29;72.46;;
37162;Laerm;68342;52.598;13.450;2023-08-30T08:54:55;44.07;37.39;59.09;;
37162;Laerm;68342;52.598;13.450;2023-08-30T08:57:21;42.85;37.02;64.60;;
37162;Laerm;68342;52.598;13.450;2023-08-30T08:59:46;41.91;36.84;59.52;;
37162;Laerm;68342;52.598;13.450;2023-08-30T09:02:12;41.39;37.02;58.15;;
37162;Laerm;68342;52.598;13.450;2023-08-30T09:04:38;43.66;37.28;64.03;;
37162;Laerm;68342;52.598;13.450;2023-08-30T09:07:04;41.27;38.11;55.36;;
37162;Laerm;68342;52.598;13.450;2023-08-30T09:09:29;43.49;37.40;58.62;;
37162;Laerm;68342;52.598;13.450;2023-08-30T09:11:55;44.18;37.91;59.42;;
37162;Laerm;68342;52.598;13.450;2023-08-30T09:14:21;41.02;37.02;64.22;;
37162;Laerm;68342;52.598;13.450;2023-08-30T09:16:55;46.90;37.22;67.08;;
37162;Laerm;68342;52.598;13.450;2023-08-30T09:19:21;42.28;37.25;58.45;;
37162;Laerm;68342;52.598;13.450;2023-08-30T09:21:53;44.07;36.80;68.15;;
37162;Laerm;68342;52.598;13.450;2023-08-30T09:24:19;43.59;36.77;69.61;;
37162;Laerm;68342;52.598;13.450;2023-08-30T09:26:47;41.48;36.62;59.20;;
37162;Laerm;68342;52.598;13.450;2023-08-30T09:29:14;41.37;36.26;59.15;;
37162;Laerm;68342;52.598;13.450;2023-08-30T09:31:41;42.08;36.67;57.62;;
37162;Laerm;68342;52.598;13.450;2023-08-30T09:34:06;40.63;36.75;54.41;;
37162;Laerm;68342;52.598;13.450;2023-08-30T09:39:06;42.35;37.69;62.36;;
37162;Laerm;68342;52.598;13.450;2023-08-30T09:41:32;43.44;36.55;68.18;;
37162;Laerm;68342;52.598;13.450;2023-08-30T09:43:58;47.68;36.39;68.09;;
37162;Laerm;68342;52.598;13.450;2023-08-30T09:46:23;41.70;38.03;56.82;;
37162;Laerm;68342;52.598;13.450;2023-08-30T09:48:49;40.96;37.06;50.66;;
37162;Laerm;68342;52.598;13.450;2023-08-30T09:51:15;41.52;36.30;55.02;;
37162;Laerm;68342;52.598;13.450;2023-08-30T09:53:44;39.80;35.58;49.75;;
37162;Laerm;68342;52.598;13.450;2023-08-30T09:56:11;39.84;35.49;51.02;;
37162;Laerm;68342;52.598;13.450;2023-08-30T09:58:38;41.78;36.49;49.99;;
37162;Laerm;68342;52.598;13.450;2023-08-30T10:01:04;42.74;38.08;52.12;;
37162;Laerm;68342;52.598;13.450;2023-08-30T10:03:30;40.96;36.90;49.22;;
37162;Laerm;68342;52.598;13.450;2023-08-30T10:05:55;40.16;36.73;49.21;;
37162;Laerm;68342;52.598;13.450;2023-08-30T10:08:21;41.63;36.93;51.37;;
37162;Laerm;68342;52.598;13.450;2023-08-30T10:10:48;40.11;36.72;53.74;;
37162;Laerm;68342;52.598;13.450;2023-08-30T10:13:14;39.77;36.42;51.32;;
37162;Laerm;68342;52.598;13.450;2023-08-30T10:15:40;40.06;36.22;56.63;;
37162;Laerm;68342;52.598;13.450;2023-08-30T10:18:07;41.36;36.67;53.01;;
37162;Laerm;68342;52.598;13.450;2023-08-30T10:20:34;40.84;37.93;48.56;;
37162;Laerm;68342;52.598;13.450;2023-08-30T10:22:59;40.35;37.02;59.78;;
37162;Laerm;68342;52.598;13.450;2023-08-30T10:25:26;45.28;37.05;59.23;;
37162;Laerm;68342;52.598;13.450;2023-08-30T10:27:53;40.98;37.08;51.00;;
37162;Laerm;68342;52.598;13.450;2023-08-30T10:30:20;41.10;37.03;53.19;;
37162;Laerm;68342;52.598;13.450;2023-08-30T10:32:46;41.19;37.23;58.93;;
37162;Laerm;68342;52.598;13.450;2023-08-30T10:35:11;41.75;37.35;55.27;;
37162;Laerm;68342;52.598;13.450;2023-08-30T10:37:38;44.74;36.79;58.39;;
37162;Laerm;68342;52.598;13.450;2023-08-30T10:40:03;47.82;37.09;62.56;;
37162;Laerm;68342;52.598;13.450;2023-08-30T10:42:29;43.53;35.99;57.41;;
37162;Laerm;68342;52.598;13.450;2023-08-30T10:47:29;46.82;37.31;70.32;;
37162;Laerm;68342;52.598;13.450;2023-08-30T10:49:55;44.14;37.58;57.36;;
37162;Laerm;68342;52.598;13.450;2023-08-30T10:52:21;45.45;38.09;56.11;;
37162;Laerm;68342;52.598;13.450;2023-08-30T10:54:47;46.50;38.06;63.78;;
37162;Laerm;68342;52.598;13.450;2023-08-30T10:57:19;43.38;36.48;60.75;;
37162;Laerm;68342;52.598;13.450;2023-08-30T11:00:04;41.30;37.98;52.13;;
37162;Laerm;68342;52.598;13.450;2023-08-30T11:02:29;41.33;37.94;55.89;;
37162;Laerm;68342;52.598;13.450;2023-08-30T11:04:56;40.93;36.68;54.39;;
37162;Laerm;68342;52.598;13.450;2023-08-30T11:07:22;45.44;37.73;62.90;;
37162;Laerm;68342;52.598;13.450;2023-08-30T11:09:49;42.46;37.58;55.60;;
37162;Laerm;68342;52.598;13.450;2023-08-30T11:12:17;46.07;38.17;60.58;;
37162;Laerm;68342;52.598;13.450;2023-08-30T11:14:43;46.61;38.28;61.92;;
37162;Laerm;68342;52.598;13.450;2023-08-30T11:17:09;43.52;37.20;53.21;;
37162;Laerm;68342;52.598;13.450;2023-08-30T11:19:35;40.67;37.32;49.65;;
37162;Laerm;68342;52.598;13.450;2023-08-30T11:22:00;42.10;37.49;51.26;;
37162;Laerm;68342;52.598;13.450;2023-08-30T11:24:25;46.05;37.98;61.63;;
37162;Laerm;68342;52.598;13.450;2023-08-30T11:26:54;47.08;37.79;62.38;;
37162;Laerm;68342;52.598;13.450;2023-08-30T11:29:19;47.24;37.23;64.99;;
37162;Laerm;68342;52.598;13.450;2023-08-30T11:31:44;43.25;37.33;60.65;;
37162;Laerm;68342;52.598;13.450;2023-08-30T11:34:10;42.91;37.51;65.87;;
37162;Laerm;68342;52.598;13.450;2023-08-30T11:36:35;41.04;37.75;53.59;;
37162;Laerm;68342;52.598;13.450;2023-08-30T11:39:02;42.52;38.42;51.52;;
37162;Laerm;68342;52.598;13.450;2023-08-30T11:41:27;45.33;38.84;58.02;;
37162;Laerm;68342;52.598;13.450;2023-08-30T11:43:53;42.71;38.68;56.61;;
37162;Laerm;68342;52.598;13.450;2023-08-30T11:46:19;42.08;38.03;62.36;;
37162;Laerm;68342;52.598;13.450;2023-08-30T11:48:48;44.73;37.45;60.87;;
37162;Laerm;68342;52.598;13.450;2023-08-30T11:51:13;42.30;37.68;60.40;;
37162;Laerm;68342;52.598;13.450;2023-08-30T11:53:39;41.07;38.11;57.52;;
37162;Laerm;68342;52.598;13.450;2023-08-30T11:56:05;40.42;36.90;58.43;;
37162;Laerm;68342;52.598;13.450;2023-08-30T11:58:34;42.42;38.31;62.14;;
37162;Laerm;68342;52.598;13.450;2023-08-30T12:00:59;43.02;37.31;65.90;;
37162;Laerm;68342;52.598;13.450;2023-08-30T12:03:28;44.47;39.60;59.80;;
37162;Laerm;68342;52.598;13.450;2023-08-30T12:05:54;45.77;41.12;66.95;;
37162;Laerm;68342;52.598;13.450;2023-08-30T12:08:20;45.08;41.64;56.73;;
37162;Laerm;68342;52.598;13.450;2023-08-30T12:10:46;46.70;41.61;62.29;;
37162;Laerm;68342;52.598;13.450;2023-08-30T12:15:49;49.77;41.65;70.26;;
37162;Laerm;68342;52.598;13.450;2023-08-30T12:18:14;44.38;38.42;65.57;;
37162;Laerm;68342;52.598;13.450;2023-08-30T12:20:40;48.50;39.92;72.99;;
37162;Laerm;68342;52.598;13.450;2023-08-30T12:23:22;43.70;38.26;67.59;;
37162;Laerm;68342;52.598;13.450;2023-08-30T12:26:03;67.47;37.83;101.58;;
37162;Laerm;68342;52.598;13.450;2023-08-30T12:28:29;43.99;37.56;70.10;;
37162;Laerm;68342;52.598;13.450;2023-08-30T12:30:55;43.40;36.93;69.66;;
37162;Laerm;68342;52.598;13.450;2023-08-30T12:33:21;42.03;37.01;59.88;;
37162;Laerm;68342;52.598;13.450;2023-08-30T12:35:46;41.31;37.76;56.17;;
37162;Laerm;68342;52.598;13.450;2023-08-30T12:38:12;40.85;37.26;54.88;;
37162;Laerm;68342;52.598;13.450;2023-08-30T12:40:37;40.87;37.67;57.30;;
37162;Laerm;68342;52.598;13.450;2023-08-30T12:43:03;41.94;38.16;57.65;;
37162;Laerm;68342;52.598;13.450;2023-08-30T12:45:28;42.62;39.34;60.11;;
37162;Laerm;68342;52.598;13.450;2023-08-30T12:47:54;45.16;39.49;54.81;;
37162;Laerm;68342;52.598;13.450;2023-08-30T12:50:20;42.01;38.12;57.28;;
37162;Laerm;68342;52.598;13.450;2023-08-30T12:52:46;41.68;37.52;54.84;;
37162;Laerm;68342;52.598;13.450;2023-08-30T12:55:11;44.03;37.52;64.92;;
37162;Laerm;68342;52.598;13.450;2023-08-30T12:57:37;43.34;38.24;57.62;;
37162;Laerm;68342;52.598;13.450;2023-08-30T13:00:02;44.02;38.61;61.44;;
37162;Laerm;68342;52.598;13.450;2023-08-30T13:02:28;43.61;38.37;59.19;;
37162;Laerm;68342;52.598;13.450;2023-08-30T13:04:53;45.04;38.27;66.24;;
37162;Laerm;68342;52.598;13.450;2023-08-30T13:07:18;43.65;39.47;56.95;;
37162;Laerm;68342;52.598;13.450;2023-08-30T13:09:43;41.98;38.13;56.04;;
37162;Laerm;68342;52.598;13.450;2023-08-30T13:12:09;43.47;38.58;62.79;;
37162;Laerm;68342;52.598;13.450;2023-08-30T13:14:34;43.44;39.74;56.26;;
37162;Laerm;68342;52.598;13.450;2023-08-30T13:16:59;42.21;37.56;58.42;;
37162;Laerm;68342;52.598;13.450;2023-08-30T13:19:24;41.50;37.67;54.20;;
37162;Laerm;68342;52.598;13.450;2023-08-30T13:21:50;42.70;38.74;62.73;;
37162;Laerm;68342;52.598;13.450;2023-08-30T13:24:15;48.84;39.08;66.97;;
37162;Laerm;68342;52.598;13.450;2023-08-30T13:26:41;46.67;37.71;62.24;;
37162;Laerm;68342;52.598;13.450;2023-08-30T13:29:06;45.68;37.44;61.47;;
37162;Laerm;68342;52.598;13.450;2023-08-30T13:31:32;43.86;38.05;59.68;;
37162;Laerm;68342;52.598;13.450;2023-08-30T13:33:57;47.59;38.31;75.80;;
37162;Laerm;68342;52.598;13.450;2023-08-30T13:36:24;47.23;41.85;69.22;;
37162;Laerm;68342;52.598;13.450;2023-08-30T13:38:49;46.38;41.50;61.78;;
37162;Laerm;68342;52.598;13.450;2023-08-30T13:41:14;46.78;42.12;59.39;;